Viimsi — ES2084 — position and weather

sailwx.info

Track history (hours):
 
Tides and Currents Weather Stations Pressure Air Temp Water Temp Dewpoint Dewpoint Depression Visibility Wind Speed Wind Dir Waves Ship Positions

Viimsi

Last reported at 2017-Nov-23 13:00 UTC. Time now 2017-Nov-23 13:21 UTC.
Position N 59°35' E 024°49'.

Length 77 m; draft 5 m.

Type: Ship. MMSI: 276297000.

Date/timePositionNaut miles runAvg speedWind from/ knotsBaromVisibWave heightAir tempDewpointWater temp
2017-Nov-23 13:00N 59°35' E 024°49'0 0.0
2017-Nov-23 12:30N 59°35' E 024°49'0 0.0
2017-Nov-23 12:00N 59°35' E 024°49'0 0.0
2017-Nov-23 11:29N 59°35' E 024°49'0 0.0
2017-Nov-23 11:00N 59°35' E 024°49'0 0.0
2017-Nov-23 10:30N 59°35' E 024°49'0 0.0
2017-Nov-23 09:59N 59°35' E 024°49'0 0.0
2017-Nov-23 09:30N 59°35' E 024°49'0 0.0
2017-Nov-23 09:00N 59°35' E 024°49'0 0.0
2017-Nov-23 08:29N 59°35' E 024°49'0 0.0
2017-Nov-23 07:59N 59°35' E 024°49'0 0.0
2017-Nov-23 07:30N 59°35' E 024°49'0 0.0
2017-Nov-23 07:00N 59°35' E 024°49'0 0.0
2017-Nov-23 06:29N 59°35' E 024°49'0 0.0
2017-Nov-23 06:00N 59°35' E 024°49'0 0.0
2017-Nov-23 05:30N 59°35' E 024°49'0 0.0
2017-Nov-23 05:00N 59°35' E 024°49'0 0.0
2017-Nov-23 04:30N 59°35' E 024°49'0 0.0
2017-Nov-23 03:57N 59°35' E 024°49'0 0.0
2017-Nov-23 03:27N 59°35' E 024°49'0 0.0
2017-Nov-23 02:57N 59°35' E 024°49'0 0.0
2017-Nov-23 02:30N 59°35' E 024°49'0 0.0
2017-Nov-23 01:58N 59°35' E 024°49'0 0.4
2017-Nov-23 01:31N 59°35' E 024°49'1 1.1
2017-Nov-23 01:00N 59°35' E 024°50'0 0.0
2017-Nov-23 00:31N 59°35' E 024°50'0 0.0
2017-Nov-23 00:01N 59°35' E 024°50'0 0.0
2017-Nov-22 23:31N 59°35' E 024°50'0 0.0
2017-Nov-22 23:00N 59°35' E 024°50'0 0.0
2017-Nov-22 22:31N 59°35' E 024°50'0 0.1
2017-Nov-22 22:00N 59°35' E 024°50'0 0.8
2017-Nov-22 21:31N 59°35' E 024°49'0 0.4
2017-Nov-22 21:00N 59°35' E 024°49'0 0.0
2017-Nov-22 20:30N 59°35' E 024°49'0 0.0
2017-Nov-22 20:01N 59°35' E 024°49'0 0.0
2017-Nov-22 19:31N 59°35' E 024°49'  
2017-Nov-20 00:30N 59°30' E 024°57'0 0.2
2017-Nov-20 00:00N 59°30' E 024°56'0 0.0
2017-Nov-19 23:30N 59°30' E 024°56'0 0.0
2017-Nov-19 23:00N 59°30' E 024°56'0 0.0
2017-Nov-19 22:30N 59°30' E 024°56'0 0.0
2017-Nov-19 22:00N 59°30' E 024°56'0 0.0
2017-Nov-19 21:30N 59°30' E 024°56'0 0.0
2017-Nov-19 21:00N 59°30' E 024°56'0 0.0
2017-Nov-19 20:30N 59°30' E 024°56'0 0.0
2017-Nov-19 20:00N 59°30' E 024°56'0 0.0
2017-Nov-19 19:30N 59°30' E 024°56'0 0.0
2017-Nov-19 19:00N 59°30' E 024°56'0 0.1
2017-Nov-19 18:30N 59°30' E 024°56'2 4.4
2017-Nov-19 18:00N 59°32' E 024°56'4 8.6
2017-Nov-19 17:30N 59°35' E 024°49'0 0.0
2017-Nov-19 16:59N 59°35' E 024°49'0 0.1
2017-Nov-19 16:31N 59°35' E 024°49'0 0.9
2017-Nov-19 15:59N 59°35' E 024°49'0 0.0
2017-Nov-19 15:29N 59°35' E 024°49'0 0.0
2017-Nov-19 14:57N 59°35' E 024°49'0 0.0
2017-Nov-19 14:29N 59°35' E 024°49'0 0.0
2017-Nov-19 13:59N 59°35' E 024°49'0 0.0
2017-Nov-19 13:29N 59°35' E 024°49'0 0.0
2017-Nov-19 12:59N 59°35' E 024°49'0 0.0
2017-Nov-19 12:30N 59°35' E 024°49'1 1.4
2017-Nov-19 12:00N 59°36' E 024°49'1 1.2
2017-Nov-19 11:29N 59°35' E 024°49'0 0.0
2017-Nov-19 10:59N 59°35' E 024°49'0 0.0
2017-Nov-19 10:30N 59°35' E 024°49'0 0.0
2017-Nov-19 10:00N 59°35' E 024°49'0 0.0
2017-Nov-19 09:31N 59°35' E 024°49'0 0.0
2017-Nov-19 09:00N 59°35' E 024°49'0 0.0
2017-Nov-19 08:28N 59°35' E 024°49'0 0.0
2017-Nov-19 08:00N 59°35' E 024°49'0 0.0
2017-Nov-19 07:31N 59°35' E 024°49'0 0.0
2017-Nov-19 06:58N 59°35' E 024°49'0 0.2
2017-Nov-19 06:28N 59°35' E 024°49'0 0.7
2017-Nov-19 06:00N 59°35' E 024°49'0 0.0
2017-Nov-19 05:30N 59°35' E 024°49'0 0.0
2017-Nov-19 05:00N 59°35' E 024°49'0 0.0
2017-Nov-19 04:29N 59°35' E 024°49'0 0.0
2017-Nov-19 04:00N 59°35' E 024°49'0 0.0
2017-Nov-19 03:30N 59°35' E 024°49'0 0.0
2017-Nov-19 03:01N 59°35' E 024°49'0 0.0
2017-Nov-19 02:30N 59°35' E 024°49'0 0.0
2017-Nov-19 02:00N 59°35' E 024°49'0 0.0
2017-Nov-19 01:30N 59°35' E 024°49'0 0.0
2017-Nov-19 01:01N 59°35' E 024°49'0 0.0
2017-Nov-19 00:31N 59°35' E 024°49'0 0.0
2017-Nov-19 00:01N 59°35' E 024°49'0 0.2
2017-Nov-18 23:30N 59°35' E 024°49'3 5.9
2017-Nov-18 23:00N 59°33' E 024°54'4 8.0
2017-Nov-18 22:30N 59°30' E 024°56'0 0.1
2017-Nov-18 21:59N 59°30' E 024°56'0 0.0
2017-Nov-18 21:29N 59°30' E 024°56'0 0.0
2017-Nov-18 21:01N 59°30' E 024°56'0 0.0
2017-Nov-18 20:30N 59°30' E 024°56'0 0.0
2017-Nov-18 19:59N 59°30' E 024°56'0 0.0
2017-Nov-18 19:28N 59°30' E 024°56'0 0.0
2017-Nov-18 18:56N 59°30' E 024°56'0 0.0
2017-Nov-18 18:30N 59°30' E 024°56'0 0.0
2017-Nov-18 17:59N 59°30' E 024°56'0 0.0
2017-Nov-18 17:30N 59°30' E 024°56'0 0.0
2017-Nov-18 17:00N 59°30' E 024°56'1 1.5
2017-Nov-18 16:30N 59°30' E 024°57'5 9.2
2017-Nov-18 16:00N 59°34' E 024°52'2 4.3
2017-Nov-18 15:28N 59°36' E 024°49'0 0.0
2017-Nov-18 15:00N 59°36' E 024°49'0 0.0
2017-Nov-18 14:31N 59°36' E 024°49'0 0.0
2017-Nov-18 13:58N 59°36' E 024°49'0 0.0
2017-Nov-18 13:25N 59°36' E 024°49'0 0.1
2017-Nov-18 13:00N 59°36' E 024°49'1 2.7
2017-Nov-18 12:30N 59°35' E 024°49'0 0.1
2017-Nov-18 11:59N 59°35' E 024°49'0 0.0
2017-Nov-18 11:30N 59°35' E 024°49'0 0.0
2017-Nov-18 10:58N 59°35' E 024°49'0 0.0
2017-Nov-18 10:28N 59°35' E 024°49'0 0.0
2017-Nov-18 09:58N 59°35' E 024°49'0 0.0
2017-Nov-18 09:28N 59°35' E 024°49'0 0.0
2017-Nov-18 08:58N 59°35' E 024°49'0 0.0
2017-Nov-18 08:29N 59°35' E 024°49'0 0.0
2017-Nov-18 07:58N 59°35' E 024°49'0 0.0
2017-Nov-18 07:28N 59°35' E 024°49'0 0.0
2017-Nov-18 06:58N 59°35' E 024°49'0 0.0
2017-Nov-18 06:28N 59°35' E 024°49'0 0.0
2017-Nov-18 05:58N 59°35' E 024°49'0 0.3
2017-Nov-18 05:31N 59°34' E 024°49'1 1.1
2017-Nov-18 05:00N 59°35' E 024°50'0 0.0
2017-Nov-18 04:30N 59°35' E 024°50'0 0.0
2017-Nov-18 04:00N 59°35' E 024°50'0 0.0
2017-Nov-18 03:30N 59°35' E 024°50'0 0.0
2017-Nov-18 03:00N 59°35' E 024°50'0 0.0
2017-Nov-18 02:30N 59°35' E 024°50'0 0.0
2017-Nov-18 02:00N 59°35' E 024°50'1 1.1
2017-Nov-18 01:28N 59°35' E 024°49'0 0.1
2017-Nov-18 00:58N 59°35' E 024°49'0 0.0
2017-Nov-18 00:28N 59°35' E 024°49'0 0.0
2017-Nov-17 23:59N 59°35' E 024°49'0 0.0
2017-Nov-17 23:28N 59°35' E 024°49'0 0.0
2017-Nov-17 22:58N 59°35' E 024°49'0 0.0
2017-Nov-17 22:28N 59°35' E 024°49'0 0.0
2017-Nov-17 21:58N 59°35' E 024°49'0 0.0
2017-Nov-17 21:30N 59°35' E 024°49'0 0.0
2017-Nov-17 21:00N 59°35' E 024°49'0 0.0
2017-Nov-17 20:30N 59°35' E 024°49'0 0.0
2017-Nov-17 20:00N 59°35' E 024°49'1 1.3
2017-Nov-17 19:31N 59°35' E 024°49'0 0.2
2017-Nov-17 19:01N 59°35' E 024°49'0 0.4
2017-Nov-17 18:30N 59°35' E 024°49'1 1.7
2017-Nov-17 17:59N 59°35' E 024°50'0 0.1
2017-Nov-17 17:29N 59°35' E 024°50'0 0.0
2017-Nov-17 16:59N 59°35' E 024°50'0 0.0
2017-Nov-17 16:29N 59°35' E 024°50'0 0.0
2017-Nov-17 15:59N 59°35' E 024°50'0 0.1
2017-Nov-17 15:29N 59°35' E 024°50'0 0.1
2017-Nov-17 15:00N 59°35' E 024°50'1 1.4
2017-Nov-17 14:31N 59°34' E 024°49'0 0.0
2017-Nov-17 14:00N 59°34' E 024°49'0 0.0
2017-Nov-17 13:31N 59°34' E 024°49'0 0.0
2017-Nov-17 13:01N 59°34' E 024°49'1 1.1
2017-Nov-17 12:31N 59°35' E 024°49'4 8.1
2017-Nov-17 12:01N 59°37' E 024°42'4 8.6
2017-Nov-17 11:31N 59°33' E 024°44'4 8.9
2017-Nov-17 11:00N 59°29' E 024°45'1 2.8
2017-Nov-17 10:30N 59°28' E 024°43'0 0.0
2017-Nov-17 10:00N 59°28' E 024°43'0 0.0
2017-Nov-17 09:30N 59°28' E 024°43'0 0.0
2017-Nov-17 09:00N 59°28' E 024°43'0 0.5
2017-Nov-17 08:30N 59°28' E 024°43'0 0.0
2017-Nov-17 07:36N 59°28' E 024°43'0 0.0
2017-Nov-17 07:31N 59°28' E 024°43'0 0.0
2017-Nov-17 07:01N 59°28' E 024°43'0 0.0
2017-Nov-17 06:31N 59°28' E 024°43'0 0.0
2017-Nov-17 06:01N 59°28' E 024°43'0 0.0
2017-Nov-17 05:30N 59°28' E 024°43'1 1.0
2017-Nov-17 05:01N 59°28' E 024°44'3 6.2
2017-Nov-17 04:31N 59°30' E 024°39'3 5.1
2017-Nov-17 04:00N 59°28' E 024°38'4 7.1
2017-Nov-17 03:31N 59°29' E 024°32'0 0.2
2017-Nov-17 03:01N 59°29' E 024°32'0 0.0
2017-Nov-17 02:31N 59°29' E 024°32'0 0.0
2017-Nov-17 02:01N 59°29' E 024°32'0 0.0
2017-Nov-17 01:30N 59°29' E 024°32'0 0.0
2017-Nov-17 01:01N 59°29' E 024°32'0 0.0
2017-Nov-17 00:31N 59°29' E 024°32'0 0.1
2017-Nov-17 00:00N 59°29' E 024°32'1 2.1
2017-Nov-16 23:30N 59°29' E 024°34'0 0.6
2017-Nov-16 23:01N 59°29' E 024°34'2 3.4
2017-Nov-16 22:31N 59°28' E 024°37'1 2.1
2017-Nov-16 22:01N 59°28' E 024°39'0 0.0
2017-Nov-16 21:31N 59°28' E 024°39'0 0.0
2017-Nov-16 21:01N 59°28' E 024°39'0 0.0
2017-Nov-16 20:30N 59°28' E 024°39'2 4.5
2017-Nov-16 20:01N 59°29' E 024°35'1 2.6
2017-Nov-16 19:31N 59°29' E 024°33'0 0.0
2017-Nov-16 19:01N 59°29' E 024°33'0 0.1
2017-Nov-16 18:31N 59°29' E 024°33'0 0.0
2017-Nov-16 18:01N 59°29' E 024°33'0 0.1
2017-Nov-16 17:30N 59°29' E 024°33'0 0.0
2017-Nov-16 17:00N 59°29' E 024°33'0 0.0
2017-Nov-16 16:31N 59°29' E 024°33'0 0.9
2017-Nov-16 16:01N 59°29' E 024°33'4 8.6
2017-Nov-16 15:31N 59°33' E 024°38'5 9.7
2017-Nov-16 15:01N 59°38' E 024°41'3 6.4
2017-Nov-16 14:31N 59°37' E 024°47'3 5.4
2017-Nov-16 14:01N 59°35' E 024°51'0 0.0
2017-Nov-16 13:31N 59°35' E 024°51'0 0.0
2017-Nov-16 13:00N 59°35' E 024°51'0 0.0
2017-Nov-16 12:31N 59°35' E 024°51'0 0.0
2017-Nov-16 12:00N 59°35' E 024°51'0 0.0
2017-Nov-16 11:30N 59°35' E 024°51'0 0.0
2017-Nov-16 11:01N 59°35' E 024°51'1 1.6
2017-Nov-16 10:31N 59°35' E 024°49'0 0.1
2017-Nov-16 10:00N 59°35' E 024°49'0 0.0
2017-Nov-16 09:31N 59°35' E 024°49'0 0.6
2017-Nov-16 09:01N 59°35' E 024°49'0 0.0
2017-Nov-16 08:30N 59°35' E 024°49'0 0.0
2017-Nov-16 08:00N 59°35' E 024°49'0 0.0
2017-Nov-16 07:31N 59°35' E 024°49'0 0.0
2017-Nov-16 07:01N 59°35' E 024°49'0 0.0
2017-Nov-16 06:31N 59°35' E 024°49'0 0.0
2017-Nov-16 06:01N 59°35' E 024°49'0 0.0
2017-Nov-16 05:30N 59°35' E 024°49'0 0.0
2017-Nov-16 05:01N 59°35' E 024°49'0 0.7
2017-Nov-16 04:31N 59°34' E 024°49'3 5.1
2017-Nov-16 04:01N 59°33' E 024°53'4 7.2
2017-Nov-16 03:31N 59°30' E 024°58'1 1.6
2017-Nov-16 02:58N 59°30' E 024°56'0 0.0
2017-Nov-16 02:28N 59°30' E 024°56'0 0.0
2017-Nov-16 01:58N 59°30' E 024°56'0 0.0
2017-Nov-16 01:28N 59°30' E 024°56'0 0.0
2017-Nov-16 00:58N 59°30' E 024°56'0 0.0
2017-Nov-16 00:28N 59°30' E 024°56'0 0.0
2017-Nov-15 23:58N 59°30' E 024°56'0 0.0
2017-Nov-15 23:28N 59°30' E 024°56'0 0.0
2017-Nov-15 22:58N 59°30' E 024°56'0 0.0
2017-Nov-15 22:28N 59°30' E 024°56'0 0.0
2017-Nov-15 21:58N 59°30' E 024°56'0 0.0
2017-Nov-15 21:28N 59°30' E 024°56'0 0.0
2017-Nov-15 20:58N 59°30' E 024°56'0 0.0
2017-Nov-15 20:30N 59°30' E 024°56'0 0.0
2017-Nov-15 19:58N 59°30' E 024°56'0 0.0
2017-Nov-15 19:28N 59°30' E 024°56'0 0.0
2017-Nov-15 18:58N 59°30' E 024°56'0 0.0
2017-Nov-15 18:28N 59°30' E 024°56'0 0.0
2017-Nov-15 17:58N 59°30' E 024°56'0 0.0
2017-Nov-15 17:28N 59°30' E 024°56'0 0.0
2017-Nov-15 16:58N 59°30' E 024°56'0 0.0
2017-Nov-15 16:28N 59°30' E 024°56'0 0.0
2017-Nov-15 15:58N 59°30' E 024°56'0 0.0
2017-Nov-15 15:28N 59°30' E 024°56'0 0.0
2017-Nov-15 14:58N 59°30' E 024°56'0 0.0
2017-Nov-15 14:28N 59°30' E 024°56'0 0.0
2017-Nov-15 13:58N 59°30' E 024°56'0 0.0
2017-Nov-15 13:28N 59°30' E 024°56'0 0.0
2017-Nov-15 12:58N 59°30' E 024°56'0 0.0
2017-Nov-15 12:28N 59°30' E 024°56'0 0.0
2017-Nov-15 11:58N 59°30' E 024°56'0 0.0
2017-Nov-15 11:28N 59°30' E 024°56'0 0.0
2017-Nov-15 10:58N 59°30' E 024°56'0 0.0
2017-Nov-15 10:28N 59°30' E 024°56'0 0.0
2017-Nov-15 09:58N 59°30' E 024°56'0 0.0
2017-Nov-15 09:28N 59°30' E 024°56'0 0.0
2017-Nov-15 08:58N 59°30' E 024°56'0 0.0
2017-Nov-15 08:31N 59°30' E 024°56'2 3.9
2017-Nov-15 08:01N 59°32' E 024°57'4 8.8
2017-Nov-15 07:31N 59°35' E 024°50'0 0.9
2017-Nov-15 07:01N 59°35' E 024°50'0 0.1
2017-Nov-15 06:31N 59°35' E 024°50'0 0.0
2017-Nov-15 06:01N 59°35' E 024°50'0 0.0
2017-Nov-15 05:31N 59°35' E 024°50'0 0.0
2017-Nov-15 05:01N 59°35' E 024°50'0 0.0
2017-Nov-15 04:31N 59°35' E 024°50'0 0.0
2017-Nov-15 04:01N 59°35' E 024°50'0 0.0
2017-Nov-15 03:31N 59°35' E 024°50'0 0.0
2017-Nov-15 03:01N 59°35' E 024°50'0 0.2
2017-Nov-15 02:31N 59°35' E 024°50'1 1.4
2017-Nov-15 02:01N 59°35' E 024°50'0 0.1
2017-Nov-15 01:31N 59°35' E 024°50'0 0.1
2017-Nov-15 01:01N 59°35' E 024°50'0 0.0
2017-Nov-15 00:30N 59°35' E 024°50'0 0.0
2017-Nov-15 00:01N 59°35' E 024°50'0 0.0
2017-Nov-14 23:31N 59°35' E 024°50'0 0.0
2017-Nov-14 23:01N 59°35' E 024°50'0 0.0
2017-Nov-14 22:31N 59°35' E 024°50'0 0.0
2017-Nov-14 22:01N 59°35' E 024°50'0 0.0
2017-Nov-14 21:31N 59°35' E 024°50'0 0.8
2017-Nov-14 21:01N 59°34' E 024°50'0 0.9
2017-Nov-14 20:31N 59°34' E 024°51'2 4.1
2017-Nov-14 20:01N 59°33' E 024°55'3 5.6
2017-Nov-14 19:30N 59°31' E 024°58'1 2.0
2017-Nov-14 19:01N 59°30' E 024°58'0 0.0
2017-Nov-14 18:31N 59°30' E 024°58'0 0.0
2017-Nov-14 18:00N 59°30' E 024°58'0 0.0
2017-Nov-14 17:31N 59°30' E 024°58'0 0.0
2017-Nov-14 17:01N 59°30' E 024°58'0 0.6
2017-Nov-14 16:31N 59°30' E 024°57'0 0.2
2017-Nov-14 16:00N 59°30' E 024°57'1 1.0
2017-Nov-14 15:31N 59°30' E 024°56'0 0.0
2017-Nov-14 15:01N 59°30' E 024°56'0 0.0
2017-Nov-14 14:30N 59°30' E 024°56'0 0.0
2017-Nov-14 14:01N 59°30' E 024°56'0 0.0
2017-Nov-14 13:31N 59°30' E 024°56'0 0.0
2017-Nov-14 13:00N 59°30' E 024°56'0 0.0
2017-Nov-14 12:31N 59°30' E 024°56'0 0.0
2017-Nov-14 12:01N 59°30' E 024°56'0 0.0
2017-Nov-14 11:31N 59°30' E 024°56'0 0.0
2017-Nov-14 11:01N 59°30' E 024°56'0 0.0
2017-Nov-14 10:31N 59°30' E 024°56'0 0.5
2017-Nov-14 10:01N 59°30' E 024°57'4 8.1
2017-Nov-14 09:31N 59°34' E 024°54'3 5.4
2017-Nov-14 09:00N 59°35' E 024°48'0 0.0
2017-Nov-14 08:31N 59°35' E 024°49'0 0.1
2017-Nov-14 08:01N 59°35' E 024°49'0 0.0
2017-Nov-14 07:31N 59°35' E 024°49'0 0.0
2017-Nov-14 07:00N 59°35' E 024°49'0 0.0
2017-Nov-14 06:31N 59°35' E 024°48'0 0.0
2017-Nov-14 06:01N 59°35' E 024°49'0 0.3
2017-Nov-14 05:31N 59°35' E 024°49'0 0.1
2017-Nov-14 05:01N 59°35' E 024°49'0 0.0
2017-Nov-14 04:31N 59°35' E 024°49'1 1.3
2017-Nov-14 04:01N 59°35' E 024°50'0 0.5
2017-Nov-14 03:31N 59°35' E 024°50'0 0.0
2017-Nov-14 03:01N 59°35' E 024°50'0 0.0
2017-Nov-14 02:30N 59°35' E 024°50'0 0.1
2017-Nov-14 02:01N 59°35' E 024°50'1 1.6
2017-Nov-14 01:31N 59°35' E 024°49'0 0.0
2017-Nov-14 01:01N 59°35' E 024°49'0 0.0
2017-Nov-14 00:31N 59°35' E 024°49'0 0.0
2017-Nov-14 00:01N 59°35' E 024°49'1 1.7
2017-Nov-13 23:31N 59°35' E 024°48'4 7.3
2017-Nov-13 23:01N 59°36' E 024°41'510.4
2017-Nov-13 22:31N 59°32' E 024°45'4 7.9
2017-Nov-13 22:01N 59°28' E 024°44'  
Track history (hours):
 
Tides and Currents Weather Stations Pressure Air Temp Water Temp Dewpoint Dewpoint Depression Visibility Wind Speed Wind Dir Waves Ship Positions

Viimsi

Last reported at 2017-Nov-23 13:00 UTC. Time now 2017-Nov-23 13:21 UTC.
Position N 59°35' E 024°49'.

Length 77 m; draft 5 m.

Type: Ship. MMSI: 276297000.

Date/timePositionNaut miles runAvg speedWind from/ knotsBaromVisibWave heightAir tempDewpointWater temp
2017-Nov-23 13:00N 59°35' E 024°49'0 0.0
2017-Nov-23 12:30N 59°35' E 024°49'0 0.0
2017-Nov-23 12:00N 59°35' E 024°49'0 0.0
2017-Nov-23 11:29N 59°35' E 024°49'0 0.0
2017-Nov-23 11:00N 59°35' E 024°49'0 0.0
2017-Nov-23 10:30N 59°35' E 024°49'0 0.0
2017-Nov-23 09:59N 59°35' E 024°49'0 0.0
2017-Nov-23 09:30N 59°35' E 024°49'0 0.0
2017-Nov-23 09:00N 59°35' E 024°49'0 0.0
2017-Nov-23 08:29N 59°35' E 024°49'0 0.0
2017-Nov-23 07:59N 59°35' E 024°49'0 0.0
2017-Nov-23 07:30N 59°35' E 024°49'0 0.0
2017-Nov-23 07:00N 59°35' E 024°49'0 0.0
2017-Nov-23 06:29N 59°35' E 024°49'0 0.0
2017-Nov-23 06:00N 59°35' E 024°49'0 0.0
2017-Nov-23 05:30N 59°35' E 024°49'0 0.0
2017-Nov-23 05:00N 59°35' E 024°49'0 0.0
2017-Nov-23 04:30N 59°35' E 024°49'0 0.0
2017-Nov-23 03:57N 59°35' E 024°49'0 0.0
2017-Nov-23 03:27N 59°35' E 024°49'0 0.0
2017-Nov-23 02:57N 59°35' E 024°49'0 0.0
2017-Nov-23 02:30N 59°35' E 024°49'0 0.0
2017-Nov-23 01:58N 59°35' E 024°49'0 0.4
2017-Nov-23 01:31N 59°35' E 024°49'1 1.1
2017-Nov-23 01:00N 59°35' E 024°50'0 0.0
2017-Nov-23 00:31N 59°35' E 024°50'0 0.0
2017-Nov-23 00:01N 59°35' E 024°50'0 0.0
2017-Nov-22 23:31N 59°35' E 024°50'0 0.0
2017-Nov-22 23:00N 59°35' E 024°50'0 0.0
2017-Nov-22 22:31N 59°35' E 024°50'0 0.1
2017-Nov-22 22:00N 59°35' E 024°50'0 0.8
2017-Nov-22 21:31N 59°35' E 024°49'0 0.4
2017-Nov-22 21:00N 59°35' E 024°49'0 0.0
2017-Nov-22 20:30N 59°35' E 024°49'0 0.0
2017-Nov-22 20:01N 59°35' E 024°49'0 0.0
2017-Nov-22 19:31N 59°35' E 024°49'  
2017-Nov-20 00:30N 59°30' E 024°57'0 0.2
2017-Nov-20 00:00N 59°30' E 024°56'0 0.0
2017-Nov-19 23:30N 59°30' E 024°56'0 0.0
2017-Nov-19 23:00N 59°30' E 024°56'0 0.0
2017-Nov-19 22:30N 59°30' E 024°56'0 0.0
2017-Nov-19 22:00N 59°30' E 024°56'0 0.0
2017-Nov-19 21:30N 59°30' E 024°56'0 0.0
2017-Nov-19 21:00N 59°30' E 024°56'0 0.0
2017-Nov-19 20:30N 59°30' E 024°56'0 0.0
2017-Nov-19 20:00N 59°30' E 024°56'0 0.0
2017-Nov-19 19:30N 59°30' E 024°56'0 0.0
2017-Nov-19 19:00N 59°30' E 024°56'0 0.1
2017-Nov-19 18:30N 59°30' E 024°56'2 4.4
2017-Nov-19 18:00N 59°32' E 024°56'4 8.6
2017-Nov-19 17:30N 59°35' E 024°49'0 0.0
2017-Nov-19 16:59N 59°35' E 024°49'0 0.1
2017-Nov-19 16:31N 59°35' E 024°49'0 0.9
2017-Nov-19 15:59N 59°35' E 024°49'0 0.0
2017-Nov-19 15:29N 59°35' E 024°49'0 0.0
2017-Nov-19 14:57N 59°35' E 024°49'0 0.0
2017-Nov-19 14:29N 59°35' E 024°49'0 0.0
2017-Nov-19 13:59N 59°35' E 024°49'0 0.0
2017-Nov-19 13:29N 59°35' E 024°49'0 0.0
2017-Nov-19 12:59N 59°35' E 024°49'0 0.0
2017-Nov-19 12:30N 59°35' E 024°49'1 1.4
2017-Nov-19 12:00N 59°36' E 024°49'1 1.2
2017-Nov-19 11:29N 59°35' E 024°49'0 0.0
2017-Nov-19 10:59N 59°35' E 024°49'0 0.0
2017-Nov-19 10:30N 59°35' E 024°49'0 0.0
2017-Nov-19 10:00N 59°35' E 024°49'0 0.0
2017-Nov-19 09:31N 59°35' E 024°49'0 0.0
2017-Nov-19 09:00N 59°35' E 024°49'0 0.0
2017-Nov-19 08:28N 59°35' E 024°49'0 0.0
2017-Nov-19 08:00N 59°35' E 024°49'0 0.0
2017-Nov-19 07:31N 59°35' E 024°49'0 0.0
2017-Nov-19 06:58N 59°35' E 024°49'0 0.2
2017-Nov-19 06:28N 59°35' E 024°49'0 0.7
2017-Nov-19 06:00N 59°35' E 024°49'0 0.0
2017-Nov-19 05:30N 59°35' E 024°49'0 0.0
2017-Nov-19 05:00N 59°35' E 024°49'0 0.0
2017-Nov-19 04:29N 59°35' E 024°49'0 0.0
2017-Nov-19 04:00N 59°35' E 024°49'0 0.0
2017-Nov-19 03:30N 59°35' E 024°49'0 0.0
2017-Nov-19 03:01N 59°35' E 024°49'0 0.0
2017-Nov-19 02:30N 59°35' E 024°49'0 0.0
2017-Nov-19 02:00N 59°35' E 024°49'0 0.0
2017-Nov-19 01:30N 59°35' E 024°49'0 0.0
2017-Nov-19 01:01N 59°35' E 024°49'0 0.0
2017-Nov-19 00:31N 59°35' E 024°49'0 0.0
2017-Nov-19 00:01N 59°35' E 024°49'0 0.2
2017-Nov-18 23:30N 59°35' E 024°49'3 5.9
2017-Nov-18 23:00N 59°33' E 024°54'4 8.0
2017-Nov-18 22:30N 59°30' E 024°56'0 0.1
2017-Nov-18 21:59N 59°30' E 024°56'0 0.0
2017-Nov-18 21:29N 59°30' E 024°56'0 0.0
2017-Nov-18 21:01N 59°30' E 024°56'0 0.0
2017-Nov-18 20:30N 59°30' E 024°56'0 0.0
2017-Nov-18 19:59N 59°30' E 024°56'0 0.0
2017-Nov-18 19:28N 59°30' E 024°56'0 0.0
2017-Nov-18 18:56N 59°30' E 024°56'0 0.0
2017-Nov-18 18:30N 59°30' E 024°56'0 0.0
2017-Nov-18 17:59N 59°30' E 024°56'0 0.0
2017-Nov-18 17:30N 59°30' E 024°56'0 0.0
2017-Nov-18 17:00N 59°30' E 024°56'1 1.5
2017-Nov-18 16:30N 59°30' E 024°57'5 9.2
2017-Nov-18 16:00N 59°34' E 024°52'2 4.3
2017-Nov-18 15:28N 59°36' E 024°49'0 0.0
2017-Nov-18 15:00N 59°36' E 024°49'0 0.0
2017-Nov-18 14:31N 59°36' E 024°49'0 0.0
2017-Nov-18 13:58N 59°36' E 024°49'0 0.0
2017-Nov-18 13:25N 59°36' E 024°49'0 0.1
2017-Nov-18 13:00N 59°36' E 024°49'1 2.7
2017-Nov-18 12:30N 59°35' E 024°49'0 0.1
2017-Nov-18 11:59N 59°35' E 024°49'0 0.0
2017-Nov-18 11:30N 59°35' E 024°49'0 0.0
2017-Nov-18 10:58N 59°35' E 024°49'0 0.0
2017-Nov-18 10:28N 59°35' E 024°49'0 0.0
2017-Nov-18 09:58N 59°35' E 024°49'0 0.0
2017-Nov-18 09:28N 59°35' E 024°49'0 0.0
2017-Nov-18 08:58N 59°35' E 024°49'0 0.0
2017-Nov-18 08:29N 59°35' E 024°49'0 0.0
2017-Nov-18 07:58N 59°35' E 024°49'0 0.0
2017-Nov-18 07:28N 59°35' E 024°49'0 0.0
2017-Nov-18 06:58N 59°35' E 024°49'0 0.0
2017-Nov-18 06:28N 59°35' E 024°49'0 0.0
2017-Nov-18 05:58N 59°35' E 024°49'0 0.3
2017-Nov-18 05:31N 59°34' E 024°49'1 1.1
2017-Nov-18 05:00N 59°35' E 024°50'0 0.0
2017-Nov-18 04:30N 59°35' E 024°50'0 0.0
2017-Nov-18 04:00N 59°35' E 024°50'0 0.0
2017-Nov-18 03:30N 59°35' E 024°50'0 0.0
2017-Nov-18 03:00N 59°35' E 024°50'0 0.0
2017-Nov-18 02:30N 59°35' E 024°50'0 0.0
2017-Nov-18 02:00N 59°35' E 024°50'1 1.1
2017-Nov-18 01:28N 59°35' E 024°49'0 0.1
2017-Nov-18 00:58N 59°35' E 024°49'0 0.0
2017-Nov-18 00:28N 59°35' E 024°49'0 0.0
2017-Nov-17 23:59N 59°35' E 024°49'0 0.0
2017-Nov-17 23:28N 59°35' E 024°49'0 0.0
2017-Nov-17 22:58N 59°35' E 024°49'0 0.0
2017-Nov-17 22:28N 59°35' E 024°49'0 0.0
2017-Nov-17 21:58N 59°35' E 024°49'0 0.0
2017-Nov-17 21:30N 59°35' E 024°49'0 0.0
2017-Nov-17 21:00N 59°35' E 024°49'0 0.0
2017-Nov-17 20:30N 59°35' E 024°49'0 0.0
2017-Nov-17 20:00N 59°35' E 024°49'1 1.3
2017-Nov-17 19:31N 59°35' E 024°49'0 0.2
2017-Nov-17 19:01N 59°35' E 024°49'0 0.4
2017-Nov-17 18:30N 59°35' E 024°49'1 1.7
2017-Nov-17 17:59N 59°35' E 024°50'0 0.1
2017-Nov-17 17:29N 59°35' E 024°50'0 0.0
2017-Nov-17 16:59N 59°35' E 024°50'0 0.0
2017-Nov-17 16:29N 59°35' E 024°50'0 0.0
2017-Nov-17 15:59N 59°35' E 024°50'0 0.1
2017-Nov-17 15:29N 59°35' E 024°50'0 0.1
2017-Nov-17 15:00N 59°35' E 024°50'1 1.4
2017-Nov-17 14:31N 59°34' E 024°49'0 0.0
2017-Nov-17 14:00N 59°34' E 024°49'0 0.0
2017-Nov-17 13:31N 59°34' E 024°49'0 0.0
2017-Nov-17 13:01N 59°34' E 024°49'1 1.1
2017-Nov-17 12:31N 59°35' E 024°49'4 8.1
2017-Nov-17 12:01N 59°37' E 024°42'4 8.6
2017-Nov-17 11:31N 59°33' E 024°44'4 8.9
2017-Nov-17 11:00N 59°29' E 024°45'1 2.8
2017-Nov-17 10:30N 59°28' E 024°43'0 0.0
2017-Nov-17 10:00N 59°28' E 024°43'0 0.0
2017-Nov-17 09:30N 59°28' E 024°43'0 0.0
2017-Nov-17 09:00N 59°28' E 024°43'0 0.5
2017-Nov-17 08:30N 59°28' E 024°43'0 0.0
2017-Nov-17 07:36N 59°28' E 024°43'0 0.0
2017-Nov-17 07:31N 59°28' E 024°43'0 0.0
2017-Nov-17 07:01N 59°28' E 024°43'0 0.0
2017-Nov-17 06:31N 59°28' E 024°43'0 0.0
2017-Nov-17 06:01N 59°28' E 024°43'0 0.0
2017-Nov-17 05:30N 59°28' E 024°43'1 1.0
2017-Nov-17 05:01N 59°28' E 024°44'3 6.2
2017-Nov-17 04:31N 59°30' E 024°39'3 5.1
2017-Nov-17 04:00N 59°28' E 024°38'4 7.1
2017-Nov-17 03:31N 59°29' E 024°32'0 0.2
2017-Nov-17 03:01N 59°29' E 024°32'0 0.0
2017-Nov-17 02:31N 59°29' E 024°32'0 0.0
2017-Nov-17 02:01N 59°29' E 024°32'0 0.0
2017-Nov-17 01:30N 59°29' E 024°32'0 0.0
2017-Nov-17 01:01N 59°29' E 024°32'0 0.0
2017-Nov-17 00:31N 59°29' E 024°32'0 0.1
2017-Nov-17 00:00N 59°29' E 024°32'1 2.1
2017-Nov-16 23:30N 59°29' E 024°34'0 0.6
2017-Nov-16 23:01N 59°29' E 024°34'2 3.4
2017-Nov-16 22:31N 59°28' E 024°37'1 2.1
2017-Nov-16 22:01N 59°28' E 024°39'0 0.0
2017-Nov-16 21:31N 59°28' E 024°39'0 0.0
2017-Nov-16 21:01N 59°28' E 024°39'0 0.0
2017-Nov-16 20:30N 59°28' E 024°39'2 4.5
2017-Nov-16 20:01N 59°29' E 024°35'1 2.6
2017-Nov-16 19:31N 59°29' E 024°33'0 0.0
2017-Nov-16 19:01N 59°29' E 024°33'0 0.1
2017-Nov-16 18:31N 59°29' E 024°33'0 0.0
2017-Nov-16 18:01N 59°29' E 024°33'0 0.1
2017-Nov-16 17:30N 59°29' E 024°33'0 0.0
2017-Nov-16 17:00N 59°29' E 024°33'0 0.0
2017-Nov-16 16:31N 59°29' E 024°33'0 0.9
2017-Nov-16 16:01N 59°29' E 024°33'4 8.6
2017-Nov-16 15:31N 59°33' E 024°38'5 9.7
2017-Nov-16 15:01N 59°38' E 024°41'3 6.4
2017-Nov-16 14:31N 59°37' E 024°47'3 5.4
2017-Nov-16 14:01N 59°35' E 024°51'0 0.0
2017-Nov-16 13:31N 59°35' E 024°51'0 0.0
2017-Nov-16 13:00N 59°35' E 024°51'0 0.0
2017-Nov-16 12:31N 59°35' E 024°51'0 0.0
2017-Nov-16 12:00N 59°35' E 024°51'0 0.0
2017-Nov-16 11:30N 59°35' E 024°51'0 0.0
2017-Nov-16 11:01N 59°35' E 024°51'1 1.6
2017-Nov-16 10:31N 59°35' E 024°49'0 0.1
2017-Nov-16 10:00N 59°35' E 024°49'0 0.0
2017-Nov-16 09:31N 59°35' E 024°49'0 0.6
2017-Nov-16 09:01N 59°35' E 024°49'0 0.0
2017-Nov-16 08:30N 59°35' E 024°49'0 0.0
2017-Nov-16 08:00N 59°35' E 024°49'0 0.0
2017-Nov-16 07:31N 59°35' E 024°49'0 0.0
2017-Nov-16 07:01N 59°35' E 024°49'0 0.0
2017-Nov-16 06:31N 59°35' E 024°49'0 0.0
2017-Nov-16 06:01N 59°35' E 024°49'0 0.0
2017-Nov-16 05:30N 59°35' E 024°49'0 0.0
2017-Nov-16 05:01N 59°35' E 024°49'0 0.7
2017-Nov-16 04:31N 59°34' E 024°49'3 5.1
2017-Nov-16 04:01N 59°33' E 024°53'4 7.2
2017-Nov-16 03:31N 59°30' E 024°58'1 1.6
2017-Nov-16 02:58N 59°30' E 024°56'0 0.0
2017-Nov-16 02:28N 59°30' E 024°56'0 0.0
2017-Nov-16 01:58N 59°30' E 024°56'0 0.0
2017-Nov-16 01:28N 59°30' E 024°56'0 0.0
2017-Nov-16 00:58N 59°30' E 024°56'0 0.0
2017-Nov-16 00:28N 59°30' E 024°56'0 0.0
2017-Nov-15 23:58N 59°30' E 024°56'0 0.0
2017-Nov-15 23:28N 59°30' E 024°56'0 0.0
2017-Nov-15 22:58N 59°30' E 024°56'0 0.0
2017-Nov-15 22:28N 59°30' E 024°56'0 0.0
2017-Nov-15 21:58N 59°30' E 024°56'0 0.0
2017-Nov-15 21:28N 59°30' E 024°56'0 0.0
2017-Nov-15 20:58N 59°30' E 024°56'0 0.0
2017-Nov-15 20:30N 59°30' E 024°56'0 0.0
2017-Nov-15 19:58N 59°30' E 024°56'0 0.0
2017-Nov-15 19:28N 59°30' E 024°56'0 0.0
2017-Nov-15 18:58N 59°30' E 024°56'0 0.0
2017-Nov-15 18:28N 59°30' E 024°56'0 0.0
2017-Nov-15 17:58N 59°30' E 024°56'0 0.0
2017-Nov-15 17:28N 59°30' E 024°56'0 0.0
2017-Nov-15 16:58N 59°30' E 024°56'0 0.0
2017-Nov-15 16:28N 59°30' E 024°56'0 0.0
2017-Nov-15 15:58N 59°30' E 024°56'0 0.0
2017-Nov-15 15:28N 59°30' E 024°56'0 0.0
2017-Nov-15 14:58N 59°30' E 024°56'0 0.0
2017-Nov-15 14:28N 59°30' E 024°56'0 0.0
2017-Nov-15 13:58N 59°30' E 024°56'0 0.0
2017-Nov-15 13:28N 59°30' E 024°56'0 0.0
2017-Nov-15 12:58N 59°30' E 024°56'0 0.0
2017-Nov-15 12:28N 59°30' E 024°56'0 0.0
2017-Nov-15 11:58N 59°30' E 024°56'0 0.0
2017-Nov-15 11:28N 59°30' E 024°56'0 0.0
2017-Nov-15 10:58N 59°30' E 024°56'0 0.0
2017-Nov-15 10:28N 59°30' E 024°56'0 0.0
2017-Nov-15 09:58N 59°30' E 024°56'0 0.0
2017-Nov-15 09:28N 59°30' E 024°56'0 0.0
2017-Nov-15 08:58N 59°30' E 024°56'0 0.0
2017-Nov-15 08:31N 59°30' E 024°56'2 3.9
2017-Nov-15 08:01N 59°32' E 024°57'4 8.8
2017-Nov-15 07:31N 59°35' E 024°50'0 0.9
2017-Nov-15 07:01N 59°35' E 024°50'0 0.1
2017-Nov-15 06:31N 59°35' E 024°50'0 0.0
2017-Nov-15 06:01N 59°35' E 024°50'0 0.0
2017-Nov-15 05:31N 59°35' E 024°50'0 0.0
2017-Nov-15 05:01N 59°35' E 024°50'0 0.0
2017-Nov-15 04:31N 59°35' E 024°50'0 0.0
2017-Nov-15 04:01N 59°35' E 024°50'0 0.0
2017-Nov-15 03:31N 59°35' E 024°50'0 0.0
2017-Nov-15 03:01N 59°35' E 024°50'0 0.2
2017-Nov-15 02:31N 59°35' E 024°50'1 1.4
2017-Nov-15 02:01N 59°35' E 024°50'0 0.1
2017-Nov-15 01:31N 59°35' E 024°50'0 0.1
2017-Nov-15 01:01N 59°35' E 024°50'0 0.0
2017-Nov-15 00:30N 59°35' E 024°50'0 0.0
2017-Nov-15 00:01N 59°35' E 024°50'0 0.0
2017-Nov-14 23:31N 59°35' E 024°50'0 0.0
2017-Nov-14 23:01N 59°35' E 024°50'0 0.0
2017-Nov-14 22:31N 59°35' E 024°50'0 0.0
2017-Nov-14 22:01N 59°35' E 024°50'0 0.0
2017-Nov-14 21:31N 59°35' E 024°50'0 0.8
2017-Nov-14 21:01N 59°34' E 024°50'0 0.9
2017-Nov-14 20:31N 59°34' E 024°51'2 4.1
2017-Nov-14 20:01N 59°33' E 024°55'3 5.6
2017-Nov-14 19:30N 59°31' E 024°58'1 2.0
2017-Nov-14 19:01N 59°30' E 024°58'0 0.0
2017-Nov-14 18:31N 59°30' E 024°58'0 0.0
2017-Nov-14 18:00N 59°30' E 024°58'0 0.0
2017-Nov-14 17:31N 59°30' E 024°58'0 0.0
2017-Nov-14 17:01N 59°30' E 024°58'0 0.6
2017-Nov-14 16:31N 59°30' E 024°57'0 0.2
2017-Nov-14 16:00N 59°30' E 024°57'1 1.0
2017-Nov-14 15:31N 59°30' E 024°56'0 0.0
2017-Nov-14 15:01N 59°30' E 024°56'0 0.0
2017-Nov-14 14:30N 59°30' E 024°56'0 0.0
2017-Nov-14 14:01N 59°30' E 024°56'0 0.0
2017-Nov-14 13:31N 59°30' E 024°56'0 0.0
2017-Nov-14 13:00N 59°30' E 024°56'0 0.0
2017-Nov-14 12:31N 59°30' E 024°56'0 0.0
2017-Nov-14 12:01N 59°30' E 024°56'0 0.0
2017-Nov-14 11:31N 59°30' E 024°56'0 0.0
2017-Nov-14 11:01N 59°30' E 024°56'0 0.0
2017-Nov-14 10:31N 59°30' E 024°56'0 0.5
2017-Nov-14 10:01N 59°30' E 024°57'4 8.1
2017-Nov-14 09:31N 59°34' E 024°54'3 5.4
2017-Nov-14 09:00N 59°35' E 024°48'0 0.0
2017-Nov-14 08:31N 59°35' E 024°49'0 0.1
2017-Nov-14 08:01N 59°35' E 024°49'0 0.0
2017-Nov-14 07:31N 59°35' E 024°49'0 0.0
2017-Nov-14 07:00N 59°35' E 024°49'0 0.0
2017-Nov-14 06:31N 59°35' E 024°48'0 0.0
2017-Nov-14 06:01N 59°35' E 024°49'0 0.3
2017-Nov-14 05:31N 59°35' E 024°49'0 0.1
2017-Nov-14 05:01N 59°35' E 024°49'0 0.0
2017-Nov-14 04:31N 59°35' E 024°49'1 1.3
2017-Nov-14 04:01N 59°35' E 024°50'0 0.5
2017-Nov-14 03:31N 59°35' E 024°50'0 0.0
2017-Nov-14 03:01N 59°35' E 024°50'0 0.0
2017-Nov-14 02:30N 59°35' E 024°50'0 0.1
2017-Nov-14 02:01N 59°35' E 024°50'1 1.6
2017-Nov-14 01:31N 59°35' E 024°49'0 0.0
2017-Nov-14 01:01N 59°35' E 024°49'0 0.0
2017-Nov-14 00:31N 59°35' E 024°49'0 0.0
2017-Nov-14 00:01N 59°35' E 024°49'1 1.7
2017-Nov-13 23:31N 59°35' E 024°48'4 7.3
2017-Nov-13 23:01N 59°36' E 024°41'510.4
2017-Nov-13 22:31N 59°32' E 024°45'4 7.9
2017-Nov-13 22:01N 59°28' E 024°44'  

Dump ship's entire track history